地図

経路データ

SID SEASON NUMBER BASIN SUBBASIN NAME ISO_TIME NATURE LAT LON WMO_WIND WMO_PRES WMO_AGENCY TRACK_TYPE DIST2LAND LANDFALL IFLAG USA_AGENCY USA_ATCF_ID USA_LAT USA_LON USA_RECORD USA_STATUS USA_WIND USA_PRES USA_SSHS USA_R34_NE USA_R34_SE USA_R34_SW USA_R34_NW USA_R50_NE USA_R50_SE USA_R50_SW USA_R50_NW USA_R64_NE USA_R64_SE USA_R64_SW USA_R64_NW USA_POCI USA_ROCI USA_RMW USA_EYE TOKYO_LAT TOKYO_LON TOKYO_GRADE TOKYO_WIND TOKYO_PRES TOKYO_R50_DIR TOKYO_R50_LONG TOKYO_R50_SHORT TOKYO_R30_DIR TOKYO_R30_LONG TOKYO_R30_SHORT TOKYO_LAND CMA_LAT CMA_LON CMA_CAT CMA_WIND CMA_PRES HKO_LAT HKO_LON HKO_CAT HKO_WIND HKO_PRES NEWDELHI_LAT NEWDELHI_LON NEWDELHI_GRADE NEWDELHI_WIND NEWDELHI_PRES NEWDELHI_CI NEWDELHI_DP NEWDELHI_POCI REUNION_LAT REUNION_LON REUNION_TYPE REUNION_WIND REUNION_PRES REUNION_TNUM REUNION_CI REUNION_RMW REUNION_R34_NE REUNION_R34_SE REUNION_R34_SW REUNION_R34_NW REUNION_R50_NE REUNION_R50_SE REUNION_R50_SW REUNION_R50_NW REUNION_R64_NE REUNION_R64_SE REUNION_R64_SW REUNION_R64_NW BOM_LAT BOM_LON BOM_TYPE BOM_WIND BOM_PRES BOM_TNUM BOM_CI BOM_RMW BOM_R34_NE BOM_R34_SE BOM_R34_SW BOM_R34_NW BOM_R50_NE BOM_R50_SE BOM_R50_SW BOM_R50_NW BOM_R64_NE BOM_R64_SE BOM_R64_SW BOM_R64_NW BOM_ROCI BOM_POCI BOM_EYE BOM_POS_METHOD BOM_PRES_METHOD NADI_LAT NADI_LON NADI_CAT NADI_WIND NADI_PRES WELLINGTON_LAT WELLINGTON_LON WELLINGTON_WIND WELLINGTON_PRES DS824_LAT DS824_LON DS824_STAGE DS824_WIND DS824_PRES TD9636_LAT TD9636_LON TD9636_STAGE TD9636_WIND TD9636_PRES TD9635_LAT TD9635_LON TD9635_WIND TD9635_PRES TD9635_ROCI NEUMANN_LAT NEUMANN_LON NEUMANN_CLASS NEUMANN_WIND NEUMANN_PRES MLC_LAT MLC_LON MLC_CLASS MLC_WIND MLC_PRES USA_GUST BOM_GUST BOM_GUST_PER REUNION_GUST REUNION_GUST_PER USA_SEAHGT USA_SEARAD_NE USA_SEARAD_SE USA_SEARAD_SW USA_SEARAD_NW STORM_SPEED STORM_DIR
1913286N18086 1913 54 NI BB NOT_NAMED 1913-10-13 00:00:00 TS 17.7000 85.9000 main 184 161 _________O____ -1 17.7000 85.9000 TC 34 5 311
1913286N18086 1913 54 NI BB NOT_NAMED 1913-10-13 03:00:00 TS 17.8600 85.7034 main 153 115 _________PO___ -1 17.9401 85.6051 TC 33 17.7000 85.9000 2 6 311
1913286N18086 1913 54 NI BB NOT_NAMED 1913-10-13 06:00:00 TS 18.1071 85.4139 main 115 69 _________OP___ -1 18.2000 85.3000 TC 32 17.9676 85.5848 2 8 313
1913286N18086 1913 54 NI BB NOT_NAMED 1913-10-13 09:00:00 TS 18.3834 85.1094 main 69 38 _________PP___ -1 18.4925 84.9850 TC 31 18.2380 85.2753 2 8 315
1913286N18086 1913 54 NI BB NOT_NAMED 1913-10-13 12:00:00 TS 18.6572 84.8391 main 23 0 _________OP___ -1 18.8000 84.7000 TC 30 18.5144 84.9782 2 8 319
1913286N18086 1913 54 NI BB NOT_NAMED 1913-10-13 15:00:00 TS 18.9462 84.5850 main 0 0 _________PO___ -1 19.0925 84.4699 TC 30 18.8000 84.7000 1 7 323
1913286N18086 1913 54 NI BB NOT_NAMED 1913-10-13 18:00:00 TS 19.2491 84.3752 main 0 0 _________OP___ -1 19.4000 84.3000 TC 30 19.0982 84.4504 1 7 330
1913286N18086 1913 54 NI BB NOT_NAMED 1913-10-13 21:00:00 TS 19.5698 84.2030 main 0 0 _________PP___ -1 19.7275 84.1551 TC 30 19.4122 84.2508 1 7 340
1913286N18086 1913 54 NI BB NOT_NAMED 1913-10-14 00:00:00 TS 19.9225 84.1129 main 0 0 _________OP___ -1 20.1000 84.1000 TC 30 19.7451 84.1257 1 8 354
1913286N18086 1913 54 NI BB NOT_NAMED 1913-10-14 03:00:00 TS 20.3250 84.1200 main 0 0 _________PO___ -1 20.5499 84.1400 TC 30 20.1000 84.1000 1 8 8
1913286N18086 1913 54 NI BB NOT_NAMED 1913-10-14 06:00:00 TS 20.7431 84.2333 main 0 0 _________OP___ -1 21.0000 84.3000 TC 30 20.4863 84.1665 1 9 21
1913286N18086 1913 54 NI BB NOT_NAMED 1913-10-14 09:00:00 TS 21.1285 84.4449 main 0 0 _________PP___ -1 21.3650 84.5551 TC 30 20.8921 84.3347 1 9 32
1913286N18086 1913 54 NI BB NOT_NAMED 1913-10-14 12:00:00 TS 21.5009 84.7428 main 0 0 _________OP___ -1 21.7000 84.9000 TC 30 21.3019 84.5856 1 10 39
1913286N18086 1913 54 NI BB NOT_NAMED 1913-10-14 15:00:00 TS 21.8750 85.0925 main 0 0 _________PO___ -1 22.0500 85.2851 TC 30 21.7000 84.9000 1 10 43
1913286N18086 1913 54 NI BB NOT_NAMED 1913-10-14 18:00:00 TS 22.2446 85.4770 main 0 0 _________OP___ -1 22.4000 85.7000 TC 30 22.0892 85.2540 1 10 45
1913286N18086 1913 54 NI BB NOT_NAMED 1913-10-14 21:00:00 TS 22.6165 85.8845 main 0 0 _________PP___ -1 22.7725 86.1075 TC 30 22.4606 85.6615 1 10 47
1913286N18086 1913 54 NI BB NOT_NAMED 1913-10-15 00:00:00 TS 22.9508 86.2942 main 0 0 _________OP___ -1 23.1000 86.5000 TC 30 22.8017 86.0884 1 9 51
1913286N18086 1913 54 NI BB NOT_NAMED 1913-10-15 03:00:00 TS 23.2112 86.6826 main 0 0 _________PO___ -1 23.3224 86.8653 TC 30 23.1000 86.5000 1 8 55
1913286N18086 1913 54 NI BB NOT_NAMED 1913-10-15 06:00:00 TS 23.4132 87.0239 main 0 0 _________OP___ -1 23.5000 87.2000 TC 30 23.3264 86.8479 1 7 57
1913286N18086 1913 54 NI BB NOT_NAMED 1913-10-15 09:00:00 TS 23.5996 87.3373 main 0 0 _________PP___ -1 23.6848 87.5003 TC 30 23.5144 87.1743 1 7 56
1913286N18086 1913 54 NI BB NOT_NAMED 1913-10-15 12:00:00 TS 23.7976 87.6442 main 0 0 _________OP___ -1 23.9000 87.8000 TC 30 23.6952 87.4884 1 7 53
1913286N18086 1913 54 NI BB NOT_NAMED 1913-10-15 15:00:00 TS 24.0425 87.9750 main 0 0 _________PO___ -1 24.1850 88.1500 TC 30 23.9000 87.8000 1 8 49
1913286N18086 1913 54 NI BB NOT_NAMED 1913-10-15 18:00:00 TS 24.3013 88.2812 main 0 0 _________OP___ -1 24.5000 88.5000 TC 30 24.1523 88.1171 1 8 46
1913286N18086 1913 54 NI BB NOT_NAMED 1913-10-15 21:00:00 TS 24.5895 88.5891 main 0 0 _________PP___ -1 24.8050 88.8123 TC 30 24.4457 88.4403 1 8 43
1913286N18086 1913 54 NI BB NOT_NAMED 1913-10-16 00:00:00 TS 24.8775 88.8790 main 0 0 _________OP___ -1 25.1000 89.1000 TC 30 24.7663 88.7685 1 7 42
1913286N18086 1913 54 NI BB NOT_NAMED 1913-10-16 03:00:00 NR 25.1000 89.1000 main 0 __________O___ -1 TC 25.1000 89.1000 1 6 42

IBTrACS Databaseについて

本データベースは、米国NOAAが公開する1842年以降の世界の熱帯低気圧のベストトラックデータアーカイブInternational Best Track Archive for Climate Stewardship (IBTrACS)を、ウェブで閲覧しやすい形式に変換したものです。

最終更新日:2021-11-26